createdAt,value
2023-01-27T00:00:33.135Z,13.27
2023-01-27T00:03:00.780Z,12.67
2023-01-27T00:05:27.725Z,14.13
2023-01-27T00:07:55.315Z,14.73
2023-01-27T00:10:21.849Z,13.93
2023-01-27T00:13:07.068Z,13.87
2023-01-27T00:15:34.443Z,13.87
2023-01-27T00:18:01.701Z,13.63
2023-01-27T00:20:46.676Z,13.07
2023-01-27T00:23:40.906Z,14.00
2023-01-27T00:26:10.432Z,13.67
2023-01-27T00:28:39.508Z,14.50
2023-01-27T00:31:08.104Z,14.83
2023-01-27T00:33:34.554Z,16.47
2023-01-27T00:36:07.377Z,16.50
2023-01-27T00:38:40.715Z,15.80
2023-01-27T00:41:20.097Z,16.17
2023-01-27T00:43:53.774Z,15.33
2023-01-27T00:46:22.691Z,15.90
2023-01-27T00:48:51.766Z,15.53
2023-01-27T00:51:18.807Z,16.33
2023-01-27T00:53:45.626Z,16.50
2023-01-27T00:56:12.644Z,15.27
2023-01-27T00:58:39.962Z,15.50
2023-01-27T01:01:10.903Z,16.40
2023-01-27T01:03:37.443Z,15.73
2023-01-27T01:06:07.562Z,15.10
2023-01-27T01:08:35.848Z,14.80
2023-01-27T01:11:03.068Z,16.30
2023-01-27T01:13:29.972Z,16.67
2023-01-27T01:15:57.231Z,15.33
2023-01-27T01:18:24.464Z,17.30
2023-01-27T01:20:50.881Z,16.30
2023-01-27T01:23:17.431Z,15.90
2023-01-27T01:25:52.983Z,16.00
2023-01-27T01:28:19.475Z,16.20
2023-01-27T01:30:46.106Z,15.77
2023-01-27T01:33:12.752Z,16.23
2023-01-27T01:35:39.587Z,15.37
2023-01-27T01:38:06.490Z,14.73
2023-01-27T01:40:33.341Z,14.90
2023-01-27T01:43:02.397Z,13.70
2023-01-27T01:45:47.710Z,15.47
2023-01-27T01:48:19.849Z,14.97
2023-01-27T01:50:55.223Z,14.50
2023-01-27T01:53:29.307Z,14.83
2023-01-27T01:56:00.227Z,14.43
2023-01-27T01:58:28.067Z,14.83
2023-01-27T02:00:56.291Z,14.50
2023-01-27T02:03:26.063Z,13.83
2023-01-27T02:05:54.986Z,14.60
2023-01-27T02:08:29.187Z,14.93
2023-01-27T02:10:56.259Z,15.30
2023-01-27T02:13:22.752Z,14.57
2023-01-27T02:15:52.188Z,14.23
2023-01-27T02:18:18.778Z,13.97
2023-01-27T02:20:51.777Z,15.70
2023-01-27T02:23:44.150Z,13.87
2023-01-27T02:26:34.404Z,13.27
2023-01-27T02:29:05.681Z,13.37
2023-01-27T02:31:32.526Z,13.47
2023-01-27T02:34:03.558Z,12.33
2023-01-27T02:36:34.731Z,11.33
2023-01-27T02:39:02.205Z,8.80
2023-01-27T02:41:39.926Z,9.57
2023-01-27T02:44:07.426Z,8.97
2023-01-27T02:46:33.989Z,7.07
2023-01-27T02:49:02.185Z,6.00
2023-01-27T02:51:29.054Z,6.83
2023-01-27T02:53:55.561Z,6.73
2023-01-27T02:56:22.419Z,7.00
2023-01-27T02:58:48.967Z,6.33
2023-01-27T03:01:21.032Z,7.27
2023-01-27T03:03:47.780Z,6.23
2023-01-27T03:06:19.233Z,7.30
2023-01-27T03:08:45.730Z,7.03
2023-01-27T03:11:14.845Z,7.37
2023-01-27T03:13:41.348Z,6.60
2023-01-27T03:16:27.255Z,7.10
2023-01-27T03:18:56.584Z,7.60
2023-01-27T03:21:23.148Z,6.07
2023-01-27T03:23:49.640Z,7.47
2023-01-27T03:26:20.830Z,7.03
2023-01-27T03:29:12.263Z,7.30
2023-01-27T03:31:41.640Z,6.40
2023-01-27T03:34:09.666Z,6.77
2023-01-27T03:37:00.438Z,6.33
2023-01-27T03:39:45.737Z,7.07
2023-01-27T03:42:30.537Z,4.87
2023-01-27T03:45:15.874Z,5.80
2023-01-27T03:47:42.431Z,5.27
2023-01-27T03:50:13.827Z,5.00
2023-01-27T03:52:40.345Z,5.57
2023-01-27T03:55:09.286Z,5.30
2023-01-27T03:57:37.930Z,5.00
2023-01-27T04:00:05.215Z,5.17
2023-01-27T04:02:57.967Z,4.80
2023-01-27T04:05:43.362Z,5.03
2023-01-27T04:08:09.778Z,5.00
2023-01-27T04:10:36.208Z,4.77
2023-01-27T04:13:02.692Z,5.03
2023-01-27T04:15:29.161Z,5.27
2023-01-27T04:17:56.015Z,5.37
2023-01-27T04:20:22.414Z,4.90
2023-01-27T04:22:48.833Z,5.43
2023-01-27T04:25:15.720Z,5.27
2023-01-27T04:27:43.347Z,5.23
2023-01-27T04:30:10.439Z,5.90
2023-01-27T04:32:36.868Z,5.83
2023-01-27T04:35:03.595Z,5.77
2023-01-27T04:37:30.420Z,5.53
2023-01-27T04:39:56.835Z,5.30
2023-01-27T04:42:23.246Z,5.83
2023-01-27T04:44:50.007Z,5.83
2023-01-27T04:47:16.458Z,5.80
2023-01-27T04:49:42.964Z,5.13
2023-01-27T04:52:09.396Z,5.63
2023-01-27T04:54:35.940Z,6.23
2023-01-27T04:57:05.610Z,5.90
2023-01-27T04:59:32.160Z,6.00
2023-01-27T05:01:59.471Z,7.03
2023-01-27T05:04:27.001Z,6.73
2023-01-27T05:06:53.946Z,7.00
2023-01-27T05:09:20.367Z,6.70
2023-01-27T05:11:46.826Z,6.77
2023-01-27T05:14:14.490Z,6.83
2023-01-27T05:16:41.029Z,6.57
2023-01-27T05:19:08.971Z,6.57
2023-01-27T05:21:35.564Z,6.73
2023-01-27T05:24:02.692Z,6.67
2023-01-27T05:26:29.238Z,6.57
2023-01-27T05:28:59.004Z,6.17
2023-01-27T05:31:31.619Z,6.73
2023-01-27T05:34:00.434Z,6.77
2023-01-27T05:36:27.697Z,6.07
2023-01-27T05:38:55.288Z,7.33
2023-01-27T05:41:22.623Z,8.43
2023-01-27T05:43:55.587Z,6.93
2023-01-27T05:46:25.067Z,7.10
2023-01-27T05:48:54.462Z,7.27
2023-01-27T05:51:23.415Z,8.20
2023-01-27T05:53:50.209Z,7.10
2023-01-27T05:56:18.915Z,7.20
2023-01-27T05:58:45.925Z,6.90
2023-01-27T06:01:14.234Z,8.27
2023-01-27T06:03:41.698Z,8.40
2023-01-27T06:06:09.769Z,7.53
2023-01-27T06:08:37.254Z,7.47
2023-01-27T06:11:04.324Z,6.97
2023-01-27T06:13:31.251Z,8.07
2023-01-27T06:15:57.754Z,7.47
2023-01-27T06:18:24.513Z,8.37
2023-01-27T06:20:50.917Z,8.17
2023-01-27T06:23:18.230Z,7.33
2023-01-27T06:25:47.713Z,7.20
2023-01-27T06:28:28.280Z,7.13
2023-01-27T06:30:56.689Z,7.43
2023-01-27T06:33:23.420Z,6.73
2023-01-27T06:35:49.874Z,8.13
2023-01-27T06:38:16.511Z,8.07
2023-01-27T06:40:44.056Z,7.63
2023-01-27T06:43:13.829Z,7.43
2023-01-27T06:45:41.085Z,6.50
2023-01-27T06:48:08.615Z,8.23
2023-01-27T06:50:35.962Z,6.67
2023-01-27T06:53:05.661Z,7.27
2023-01-27T06:55:32.960Z,6.90
2023-01-27T06:57:59.403Z,7.43
2023-01-27T07:00:26.037Z,7.53
2023-01-27T07:02:55.594Z,6.97
2023-01-27T07:05:22.223Z,6.93
2023-01-27T07:07:48.679Z,7.70
2023-01-27T07:10:15.711Z,7.90
2023-01-27T07:12:42.325Z,7.10
2023-01-27T07:15:09.884Z,7.50
2023-01-27T07:17:37.121Z,7.30
2023-01-27T07:20:05.275Z,7.37
2023-01-27T07:22:31.762Z,7.07
2023-01-27T07:24:58.365Z,6.97
2023-01-27T07:27:25.485Z,6.83
2023-01-27T07:29:52.150Z,6.20
2023-01-27T07:32:18.841Z,6.53
2023-01-27T07:34:45.398Z,6.73
2023-01-27T07:37:13.483Z,6.80
2023-01-27T07:39:39.958Z,7.10
2023-01-27T07:42:07.021Z,8.17
2023-01-27T07:44:34.325Z,7.30
2023-01-27T07:47:00.750Z,5.73
2023-01-27T07:49:27.680Z,6.70
2023-01-27T07:51:54.287Z,5.30
2023-01-27T07:54:20.838Z,6.13
2023-01-27T07:56:47.318Z,6.27
2023-01-27T07:59:13.945Z,6.27
2023-01-27T08:01:41.759Z,5.77
2023-01-27T08:04:08.313Z,6.57
2023-01-27T08:06:34.925Z,7.60
2023-01-27T08:09:01.411Z,7.13
2023-01-27T08:11:27.873Z,6.37
2023-01-27T08:13:54.294Z,6.00
2023-01-27T08:16:20.788Z,5.70
2023-01-27T08:18:47.167Z,6.73
2023-01-27T08:21:13.877Z,5.83
2023-01-27T08:23:40.571Z,5.43
2023-01-27T08:26:07.632Z,10.77
2023-01-27T08:28:36.171Z,6.80
2023-01-27T08:31:11.208Z,6.03
2023-01-27T08:33:38.839Z,5.17
2023-01-27T08:36:08.481Z,5.27
2023-01-27T08:38:35.173Z,10.07
2023-01-27T08:41:07.122Z,6.07
2023-01-27T08:43:34.190Z,6.77
2023-01-27T08:46:00.948Z,5.57
2023-01-27T08:48:31.336Z,5.63
2023-01-27T08:50:58.586Z,4.93
2023-01-27T08:53:26.654Z,5.10
2023-01-27T08:55:55.761Z,5.97
2023-01-27T08:58:22.850Z,6.33
2023-01-27T09:00:49.340Z,6.23
2023-01-27T09:03:16.745Z,5.50
2023-01-27T09:05:43.394Z,5.83
2023-01-27T09:08:10.180Z,6.17
2023-01-27T09:10:39.020Z,6.17
2023-01-27T09:13:05.540Z,5.83
2023-01-27T09:15:32.411Z,5.07
2023-01-27T09:17:59.305Z,5.27
2023-01-27T09:20:25.829Z,5.73
2023-01-27T09:22:54.698Z,6.10
2023-01-27T09:25:21.181Z,5.57
2023-01-27T09:27:47.907Z,5.90
2023-01-27T09:30:16.491Z,6.50
2023-01-27T09:32:43.273Z,5.90
2023-01-27T09:35:10.063Z,6.93
2023-01-27T09:37:43.131Z,5.50
2023-01-27T09:40:21.496Z,5.70
2023-01-27T09:42:59.634Z,6.30
2023-01-27T09:45:55.310Z,5.63
2023-01-27T09:48:58.142Z,9.10
2023-01-27T09:51:52.849Z,6.60
2023-01-27T09:54:43.554Z,5.93
2023-01-27T09:57:36.062Z,6.63
2023-01-27T10:00:17.055Z,5.57
2023-01-27T10:03:23.518Z,5.03
2023-01-27T10:06:24.361Z,6.07
2023-01-27T10:09:19.387Z,5.33
2023-01-27T10:11:57.266Z,5.97
2023-01-27T10:14:30.232Z,6.10
2023-01-27T10:17:08.547Z,5.90
2023-01-27T10:19:52.324Z,5.43
2023-01-27T10:22:27.943Z,5.17
2023-01-27T10:25:12.270Z,6.13
2023-01-27T10:27:46.162Z,5.93
2023-01-27T10:30:27.763Z,6.00
2023-01-27T10:33:27.778Z,5.63
2023-01-27T10:36:13.792Z,5.87
2023-01-27T10:39:17.740Z,5.60
2023-01-27T10:42:10.605Z,5.77
2023-01-27T10:45:01.118Z,5.10
2023-01-27T10:47:42.826Z,5.00
2023-01-27T10:50:19.534Z,7.80
2023-01-27T10:52:54.756Z,6.77
2023-01-27T10:55:37.571Z,9.67
2023-01-27T10:58:12.126Z,5.63
2023-01-27T11:01:19.705Z,6.23
2023-01-27T11:03:42.173Z,6.57
2023-01-27T11:06:15.337Z,6.60
2023-01-27T11:08:46.161Z,6.80
2023-01-27T11:11:33.992Z,7.50
2023-01-27T11:14:10.119Z,6.53
2023-01-27T11:16:40.103Z,5.90
2023-01-27T11:19:33.136Z,6.40
2023-01-27T11:22:07.503Z,6.83
2023-01-27T11:25:00.828Z,7.23
2023-01-27T11:27:41.466Z,14.73
2023-01-27T11:30:21.537Z,7.00
2023-01-27T11:32:59.158Z,5.77
2023-01-27T11:35:25.705Z,5.43
2023-01-27T11:37:56.268Z,5.27
2023-01-27T11:40:32.413Z,5.73
2023-01-27T11:42:59.732Z,5.73
2023-01-27T11:45:30.251Z,5.70
2023-01-27T11:48:00.317Z,5.47
2023-01-27T11:50:30.663Z,5.63
2023-01-27T11:53:36.851Z,5.37
2023-01-27T11:56:10.390Z,5.20
2023-01-27T11:58:44.573Z,5.27
2023-01-27T12:01:18.858Z,5.17
2023-01-27T12:04:09.557Z,5.73
2023-01-27T12:06:44.855Z,5.70
2023-01-27T12:09:31.538Z,5.43
2023-01-27T12:12:10.238Z,5.10
2023-01-27T12:14:36.909Z,4.97
2023-01-27T12:17:06.268Z,4.87
2023-01-27T12:19:41.009Z,4.70
2023-01-27T12:22:24.500Z,4.97
2023-01-27T12:24:56.470Z,5.33
2023-01-27T12:27:27.063Z,4.63
2023-01-27T12:29:56.994Z,5.00
2023-01-27T12:32:55.717Z,4.73
2023-01-27T12:35:27.663Z,5.17
2023-01-27T12:38:04.917Z,4.57
2023-01-27T12:40:33.613Z,4.97
2023-01-27T12:43:14.740Z,4.47
2023-01-27T12:45:43.385Z,5.00
2023-01-27T12:48:09.954Z,3.87
2023-01-27T12:50:54.626Z,4.60
2023-01-27T12:53:27.737Z,4.13
2023-01-27T12:55:59.989Z,4.03
2023-01-27T12:58:33.625Z,4.20
2023-01-27T13:01:18.493Z,4.43
2023-01-27T13:03:48.593Z,4.23
2023-01-27T13:06:18.392Z,3.97
2023-01-27T13:08:47.095Z,3.87
2023-01-27T13:11:13.705Z,4.57
2023-01-27T13:13:49.928Z,4.57
2023-01-27T13:16:24.194Z,3.90
2023-01-27T13:18:59.437Z,5.37
2023-01-27T13:21:34.080Z,4.40
2023-01-27T13:24:04.000Z,4.20
2023-01-27T13:26:34.368Z,4.23
2023-01-27T13:29:09.686Z,3.70
2023-01-27T13:31:51.842Z,4.17
2023-01-27T13:34:24.798Z,4.60
2023-01-27T13:36:57.837Z,4.27
2023-01-27T13:39:54.761Z,4.77
2023-01-27T13:42:28.763Z,4.23
2023-01-27T13:45:01.233Z,4.40
2023-01-27T13:47:41.165Z,4.70
2023-01-27T13:50:33.659Z,4.87
2023-01-27T13:53:01.995Z,4.90
2023-01-27T13:55:57.796Z,4.60
2023-01-27T13:58:47.292Z,5.03
2023-01-27T14:01:36.154Z,5.07
2023-01-27T14:04:21.280Z,4.40
2023-01-27T14:07:13.974Z,4.83
2023-01-27T14:10:07.570Z,4.97
2023-01-27T14:12:40.784Z,4.83
2023-01-27T14:15:46.767Z,4.80
2023-01-27T14:18:21.892Z,5.60
2023-01-27T14:21:00.939Z,5.73
2023-01-27T14:23:37.623Z,5.37
2023-01-27T14:26:23.758Z,5.37
2023-01-27T14:29:00.484Z,5.40
2023-01-27T14:31:37.332Z,5.37
2023-01-27T14:34:09.994Z,5.40
2023-01-27T14:36:50.422Z,6.20
2023-01-27T14:39:28.737Z,5.60
2023-01-27T14:42:16.239Z,5.80
2023-01-27T14:45:03.783Z,5.50
2023-01-27T14:47:50.780Z,5.90
2023-01-27T14:50:30.082Z,6.03
2023-01-27T14:53:28.490Z,6.30
2023-01-27T14:56:26.004Z,5.47
2023-01-27T14:59:05.819Z,4.70
2023-01-27T15:01:39.501Z,5.27
2023-01-27T15:04:44.285Z,4.77
2023-01-27T15:07:14.403Z,5.00
2023-01-27T15:09:49.774Z,5.17
2023-01-27T15:12:48.152Z,4.90
2023-01-27T15:15:50.479Z,4.77
2023-01-27T15:18:29.069Z,4.20
2023-01-27T15:21:19.927Z,5.33
2023-01-27T15:24:07.738Z,4.37
2023-01-27T15:26:36.231Z,4.37
2023-01-27T15:29:04.071Z,4.50
2023-01-27T15:31:31.530Z,4.47
2023-01-27T15:34:03.989Z,4.43
2023-01-27T15:36:33.825Z,3.83
2023-01-27T15:39:09.289Z,3.90
2023-01-27T15:42:10.064Z,3.97
2023-01-27T15:45:01.354Z,3.97
2023-01-27T15:47:35.228Z,3.60
2023-01-27T15:50:22.837Z,3.93
2023-01-27T15:52:50.331Z,4.13
2023-01-27T15:55:29.205Z,3.87
2023-01-27T15:58:10.698Z,3.70
2023-01-27T16:00:42.715Z,3.70
2023-01-27T16:03:21.255Z,3.70
2023-01-27T16:05:52.197Z,4.13
2023-01-27T16:08:19.884Z,4.40
2023-01-27T16:10:46.725Z,3.97
2023-01-27T16:13:23.827Z,3.77
2023-01-27T16:16:19.278Z,3.80
2023-01-27T16:19:18.046Z,3.60
2023-01-27T16:21:52.022Z,4.37
2023-01-27T16:24:47.614Z,3.60
2023-01-27T16:27:22.049Z,3.47
2023-01-27T16:29:57.241Z,3.50
2023-01-27T16:32:28.525Z,3.13
2023-01-27T16:35:04.987Z,3.80
2023-01-27T16:37:36.761Z,3.60
2023-01-27T16:40:22.982Z,2.90
2023-01-27T16:42:52.241Z,3.93
2023-01-27T16:45:21.952Z,3.20
2023-01-27T16:47:54.946Z,3.53
2023-01-27T16:50:42.287Z,3.30
2023-01-27T16:53:18.825Z,3.20
2023-01-27T16:56:00.192Z,2.67
2023-01-27T16:58:39.799Z,2.90
2023-01-27T17:01:42.845Z,2.87
2023-01-27T17:04:20.432Z,2.97
2023-01-27T17:06:48.697Z,3.20
2023-01-27T17:09:31.703Z,3.00
2023-01-27T17:11:59.244Z,2.73
2023-01-27T17:14:38.201Z,2.60
2023-01-27T17:17:15.294Z,3.00
2023-01-27T17:19:47.689Z,2.73
2023-01-27T17:22:26.060Z,2.43
2023-01-27T17:24:55.535Z,2.70
2023-01-27T17:27:27.223Z,2.50
2023-01-27T17:30:02.524Z,2.70
2023-01-27T17:32:33.963Z,2.77
2023-01-27T17:35:03.217Z,3.40
2023-01-27T17:37:31.379Z,2.90
2023-01-27T17:40:00.030Z,2.37
2023-01-27T17:42:30.808Z,2.57
2023-01-27T17:45:26.104Z,2.33
2023-01-27T17:47:52.887Z,2.30
2023-01-27T17:50:22.975Z,2.30
2023-01-27T17:52:54.407Z,2.20
2023-01-27T17:55:24.308Z,2.40
2023-01-27T17:57:59.468Z,2.50
2023-01-27T18:00:38.316Z,2.60
2023-01-27T18:03:12.908Z,2.60
2023-01-27T18:05:43.400Z,2.50
2023-01-27T18:08:10.753Z,2.60
2023-01-27T18:10:43.983Z,2.47
2023-01-27T18:13:19.836Z,2.57
2023-01-27T18:16:02.846Z,3.83
2023-01-27T18:18:35.135Z,3.40
2023-01-27T18:21:10.563Z,2.43
2023-01-27T18:23:45.303Z,2.30
2023-01-27T18:26:24.116Z,3.07
2023-01-27T18:29:04.055Z,3.10
2023-01-27T18:31:58.062Z,2.43
2023-01-27T18:34:26.649Z,2.97
2023-01-27T18:36:57.004Z,2.77
2023-01-27T18:39:34.385Z,2.50
2023-01-27T18:42:02.186Z,2.60
2023-01-27T18:44:34.447Z,2.50
2023-01-27T18:47:29.363Z,2.60
2023-01-27T18:49:55.842Z,3.20
2023-01-27T18:52:23.264Z,2.70
2023-01-27T18:54:55.174Z,3.20
2023-01-27T18:57:21.905Z,2.60
2023-01-27T18:59:48.345Z,2.90
2023-01-27T19:02:15.994Z,2.57
2023-01-27T19:04:43.358Z,3.03
2023-01-27T19:07:15.706Z,2.90
2023-01-27T19:09:46.821Z,2.73
2023-01-27T19:12:13.427Z,2.73
2023-01-27T19:14:41.752Z,2.70
2023-01-27T19:17:27.338Z,2.67
2023-01-27T19:19:54.283Z,3.00
2023-01-27T19:22:20.891Z,3.20
2023-01-27T19:24:47.370Z,3.57
2023-01-27T19:27:15.555Z,3.17
2023-01-27T19:29:42.523Z,3.40
2023-01-27T19:32:14.576Z,3.00
2023-01-27T19:34:41.751Z,3.37
2023-01-27T19:37:16.956Z,3.60
2023-01-27T19:39:44.981Z,3.60
2023-01-27T19:42:13.182Z,3.90
2023-01-27T19:44:39.593Z,4.00
2023-01-27T19:47:15.156Z,3.93
2023-01-27T19:49:41.763Z,3.90
2023-01-27T19:52:09.882Z,4.00
2023-01-27T19:54:36.392Z,4.07
2023-01-27T19:57:02.951Z,4.00
2023-01-27T19:59:29.395Z,3.97
2023-01-27T20:01:56.888Z,4.07
2023-01-27T20:04:23.565Z,4.07
2023-01-27T20:06:50.237Z,4.67
2023-01-27T20:09:16.631Z,4.77
2023-01-27T20:11:44.538Z,5.13
2023-01-27T20:14:14.208Z,4.73
2023-01-27T20:16:41.130Z,4.90
2023-01-27T20:19:32.655Z,4.93
2023-01-27T20:22:01.469Z,4.97
2023-01-27T20:24:28.074Z,5.30
2023-01-27T20:26:56.320Z,5.20
2023-01-27T20:29:22.730Z,5.43
2023-01-27T20:31:49.733Z,5.50
2023-01-27T20:34:16.396Z,5.53
2023-01-27T20:36:42.823Z,5.20
2023-01-27T20:39:09.693Z,5.50
2023-01-27T20:41:36.179Z,6.00
2023-01-27T20:44:02.783Z,6.60
2023-01-27T20:46:29.827Z,5.67
2023-01-27T20:48:57.891Z,5.97
2023-01-27T20:51:24.320Z,6.27
2023-01-27T20:53:50.754Z,6.47
2023-01-27T20:56:20.142Z,6.13
2023-01-27T20:58:47.676Z,5.87
2023-01-27T21:01:23.633Z,5.90
2023-01-27T21:03:50.756Z,6.50
2023-01-27T21:06:19.747Z,6.37
2023-01-27T21:08:49.597Z,6.53
2023-01-27T21:11:18.635Z,6.53
2023-01-27T21:13:45.471Z,6.63
2023-01-27T21:16:12.810Z,6.53
2023-01-27T21:18:39.446Z,6.43
2023-01-27T21:21:06.176Z,6.23
2023-01-27T21:23:34.094Z,6.47
2023-01-27T21:26:05.537Z,7.10
2023-01-27T21:28:33.945Z,6.93
2023-01-27T21:31:07.999Z,7.00
2023-01-27T21:33:36.832Z,5.93
2023-01-27T21:36:04.187Z,7.00
2023-01-27T21:38:31.607Z,7.20
2023-01-27T21:41:10.241Z,7.27
2023-01-27T21:43:55.983Z,7.23
2023-01-27T21:46:22.919Z,7.23
2023-01-27T21:48:49.798Z,6.90
2023-01-27T21:51:16.220Z,7.63
2023-01-27T21:53:42.718Z,6.87
2023-01-27T21:56:10.908Z,6.90
2023-01-27T21:58:37.399Z,6.60
2023-01-27T22:01:08.277Z,7.23
2023-01-27T22:03:36.917Z,6.70
2023-01-27T22:06:05.673Z,6.33
2023-01-27T22:08:32.283Z,6.17
2023-01-27T22:11:16.731Z,6.00
2023-01-27T22:13:43.175Z,5.53
2023-01-27T22:16:14.770Z,5.93
2023-01-27T22:18:41.975Z,5.40
2023-01-27T22:21:09.344Z,5.30
2023-01-27T22:23:35.864Z,5.90
2023-01-27T22:26:02.248Z,5.97
2023-01-27T22:28:30.031Z,6.10
2023-01-27T22:31:01.037Z,5.83
2023-01-27T22:33:27.500Z,5.20
2023-01-27T22:36:02.568Z,5.73
2023-01-27T22:38:29.073Z,5.57
2023-01-27T22:40:58.828Z,5.30
2023-01-27T22:43:25.503Z,5.53
2023-01-27T22:45:52.119Z,5.10
2023-01-27T22:48:18.634Z,5.03
2023-01-27T22:50:45.093Z,5.63
2023-01-27T22:53:11.557Z,5.53
2023-01-27T22:55:37.968Z,5.30
2023-01-27T22:58:04.428Z,4.93
2023-01-27T23:00:30.864Z,4.80
2023-01-27T23:02:57.290Z,4.80
2023-01-27T23:05:23.914Z,3.77
2023-01-27T23:07:50.368Z,4.77
2023-01-27T23:10:17.096Z,4.40
2023-01-27T23:12:43.546Z,4.27
2023-01-27T23:15:10.642Z,3.13
2023-01-27T23:17:37.081Z,3.10
2023-01-27T23:20:04.151Z,3.27
2023-01-27T23:22:30.541Z,2.87
2023-01-27T23:24:56.986Z,2.63
2023-01-27T23:27:23.394Z,2.70
2023-01-27T23:29:49.876Z,2.90
2023-01-27T23:32:16.290Z,3.07
2023-01-27T23:34:42.841Z,3.40
2023-01-27T23:37:09.342Z,3.27
2023-01-27T23:39:35.781Z,4.50
2023-01-27T23:42:02.318Z,4.37
2023-01-27T23:44:28.716Z,4.10
2023-01-27T23:46:55.198Z,3.93
2023-01-27T23:49:21.630Z,4.07
2023-01-27T23:51:48.031Z,4.33
2023-01-27T23:54:14.509Z,4.70
2023-01-27T23:56:40.885Z,5.70
2023-01-27T23:59:07.303Z,4.63
